createdAt,value
2018-09-13T05:10:01.188Z,1.93
2018-09-13T05:12:29.987Z,2.10
2018-09-13T05:14:58.929Z,2.00
2018-09-13T05:17:27.958Z,2.20
2018-09-13T05:19:57.002Z,1.90
2018-09-13T05:22:25.751Z,2.87
2018-09-13T05:24:54.712Z,2.53
2018-09-13T05:27:23.218Z,2.70
2018-09-13T05:29:52.577Z,2.57
2018-09-13T05:32:21.478Z,2.43
2018-09-13T05:34:50.560Z,2.23
2018-09-13T05:37:19.440Z,2.80
2018-09-13T05:39:48.510Z,2.30
2018-09-13T05:42:17.629Z,2.37
2018-09-13T05:44:46.436Z,1.80
2018-09-13T05:47:15.023Z,2.50
2018-09-13T05:49:44.323Z,2.47
2018-09-13T05:52:13.293Z,2.20
2018-09-13T05:54:42.144Z,2.40
2018-09-13T05:57:11.011Z,2.40
2018-09-13T05:59:39.970Z,2.70
2018-09-13T06:02:09.142Z,2.60
2018-09-13T06:04:38.059Z,2.80
2018-09-13T06:07:07.672Z,2.77
2018-09-13T06:09:36.504Z,3.37
2018-09-13T06:12:05.337Z,2.80
2018-09-13T06:14:34.168Z,3.20
2018-09-13T06:17:03.252Z,2.87
2018-09-13T06:19:32.035Z,3.03
2018-09-13T06:22:00.958Z,2.60
2018-09-13T06:24:29.968Z,3.13
2018-09-13T06:26:58.805Z,2.90
2018-09-13T06:29:27.829Z,2.67
2018-09-13T06:31:57.860Z,2.30
2018-09-13T06:34:26.693Z,2.40
2018-09-13T06:36:55.434Z,2.20
2018-09-13T06:39:24.571Z,2.67
2018-09-13T06:41:53.485Z,2.90
2018-09-13T06:44:22.228Z,2.50
2018-09-13T06:46:51.039Z,2.37
2018-09-13T06:49:20.001Z,2.73
2018-09-13T06:51:49.024Z,2.20
2018-09-13T06:54:17.904Z,2.40
2018-09-13T06:56:46.884Z,1.83
2018-09-13T06:59:15.688Z,2.60
2018-09-13T07:01:44.566Z,1.97
2018-09-13T07:04:13.371Z,1.90
2018-09-13T07:06:42.542Z,2.30
2018-09-13T07:09:13.905Z,1.77
2018-09-13T07:11:45.087Z,2.17
2018-09-13T07:14:14.091Z,1.87
2018-09-13T07:16:43.085Z,1.60
2018-09-13T07:19:12.574Z,1.60
2018-09-13T07:21:41.487Z,1.60
2018-09-13T07:24:10.744Z,1.70
2018-09-13T07:26:39.639Z,1.47
2018-09-13T07:29:08.541Z,1.47
2018-09-13T07:31:38.226Z,1.53
2018-09-13T07:34:07.728Z,1.60
2018-09-13T07:36:36.505Z,1.53
2018-09-13T07:39:08.684Z,1.53
2018-09-13T07:41:38.301Z,1.23
2018-09-13T07:44:07.084Z,1.50
2018-09-13T07:46:36.068Z,1.80
2018-09-13T07:49:05.120Z,1.50
2018-09-13T07:51:34.336Z,1.60
2018-09-13T07:54:03.404Z,1.50
2018-09-13T07:56:32.333Z,2.33
2018-09-13T07:59:01.441Z,1.80
2018-09-13T08:01:30.407Z,1.83
2018-09-13T08:03:59.456Z,1.70
2018-09-13T08:06:28.301Z,1.77
2018-09-13T08:08:57.330Z,1.90
2018-09-13T08:11:26.216Z,2.03
2018-09-13T08:13:55.373Z,1.77
2018-09-13T08:16:25.368Z,1.07
2018-09-13T08:18:54.367Z,1.87
2018-09-13T08:21:23.123Z,1.30
2018-09-13T08:23:52.242Z,1.30
2018-09-13T08:26:21.176Z,1.50
2018-09-13T08:28:50.123Z,1.37
2018-09-13T08:31:18.991Z,2.07
2018-09-13T08:33:48.484Z,1.73
2018-09-13T08:36:17.222Z,1.43
2018-09-13T08:38:46.010Z,1.90
2018-09-13T08:41:14.962Z,2.13
2018-09-13T08:43:44.002Z,1.20
2018-09-13T08:46:12.862Z,1.70
2018-09-13T08:48:41.725Z,2.10
2018-09-13T08:51:10.746Z,2.10
2018-09-13T08:53:39.780Z,1.90
2018-09-13T08:56:08.568Z,2.00
2018-09-13T08:58:37.560Z,1.40
2018-09-13T09:01:06.354Z,1.67
2018-09-13T09:03:35.266Z,1.60
2018-09-13T09:06:04.084Z,2.23
2018-09-13T09:08:33.045Z,1.70
2018-09-13T09:11:01.963Z,1.30
2018-09-13T09:13:30.890Z,1.37
2018-09-13T09:15:59.698Z,1.50
2018-09-13T09:18:28.715Z,1.30
2018-09-13T09:20:57.859Z,2.03
2018-09-13T09:23:26.927Z,1.10
2018-09-13T09:25:55.659Z,1.50
2018-09-13T09:28:24.487Z,1.63
2018-09-13T09:30:53.423Z,1.37
2018-09-13T09:33:22.258Z,1.50
2018-09-13T09:35:51.094Z,2.47
2018-09-13T09:38:20.254Z,1.57
2018-09-13T09:40:49.122Z,1.77
2018-09-13T09:43:17.925Z,1.83
2018-09-13T09:45:46.694Z,1.47
2018-09-13T09:48:15.648Z,1.60
2018-09-13T09:50:44.479Z,1.60
2018-09-13T09:53:13.504Z,1.43
2018-09-13T09:55:42.372Z,1.97
2018-09-13T09:58:11.182Z,1.07
2018-09-13T10:00:46.152Z,1.30
2018-09-13T10:03:15.127Z,1.37
2018-09-13T10:05:44.353Z,1.33
2018-09-13T10:08:13.150Z,1.40
2018-09-13T10:10:42.007Z,1.47
2018-09-13T10:13:10.772Z,1.30
2018-09-13T10:15:45.212Z,1.80
2018-09-13T10:18:19.634Z,1.60
2018-09-13T10:20:53.776Z,1.87
2018-09-13T10:23:28.400Z,1.40
2018-09-13T10:26:02.624Z,1.97
2018-09-13T10:28:37.382Z,1.60
2018-09-13T10:32:15.714Z,1.63
2018-09-13T10:34:49.770Z,1.40
2018-09-13T10:37:24.546Z,1.60
2018-09-13T10:39:59.038Z,1.00
2018-09-13T10:42:35.179Z,1.50
2018-09-13T10:46:08.484Z,1.90
2018-09-13T10:48:37.584Z,2.00
2018-09-13T10:52:10.349Z,1.83
2018-09-13T10:54:43.691Z,1.30
2018-09-13T10:57:18.120Z,1.70
2018-09-13T10:59:48.634Z,1.30
2018-09-13T11:02:17.572Z,1.40
2018-09-13T11:04:46.958Z,1.30
2018-09-13T11:07:15.865Z,2.33
2018-09-13T11:09:44.660Z,2.50
2018-09-13T11:12:13.576Z,1.43
2018-09-13T11:14:56.267Z,1.40
2018-09-13T11:17:25.880Z,1.73
2018-09-13T11:19:55.622Z,1.77
2018-09-13T11:22:24.836Z,4.57
2018-09-13T11:24:53.619Z,1.20
2018-09-13T11:27:22.353Z,1.60
2018-09-13T11:29:51.877Z,1.60
2018-09-13T11:32:20.710Z,1.50
2018-09-13T11:34:51.039Z,1.93
2018-09-13T11:37:19.825Z,1.47
2018-09-13T11:39:49.084Z,1.50
2018-09-13T11:42:17.835Z,1.23
2018-09-13T11:44:46.722Z,1.30
2018-09-13T11:47:15.688Z,1.67
2018-09-13T11:49:44.591Z,1.50
2018-09-13T11:52:13.386Z,1.30
2018-09-13T11:54:42.120Z,1.33
2018-09-13T11:57:10.990Z,1.50
2018-09-13T11:59:39.635Z,1.40
2018-09-13T12:02:08.525Z,1.30
2018-09-13T12:04:37.564Z,1.43
2018-09-13T12:07:06.578Z,1.40
2018-09-13T12:09:37.888Z,1.20
2018-09-13T12:12:06.860Z,1.70
2018-09-13T12:14:36.038Z,1.80
2018-09-13T12:17:05.056Z,1.20
2018-09-13T12:19:34.065Z,1.30
2018-09-13T12:22:03.193Z,1.30
2018-09-13T12:24:32.237Z,1.20
2018-09-13T12:27:01.427Z,1.63
2018-09-13T12:29:30.261Z,1.40
2018-09-13T12:32:00.447Z,1.80
2018-09-13T12:34:29.544Z,1.20
2018-09-13T12:36:58.341Z,1.17
2018-09-13T12:39:27.232Z,1.50
2018-09-13T12:41:56.058Z,1.20
2018-09-13T12:44:24.766Z,1.50
2018-09-13T12:46:54.246Z,1.57
2018-09-13T12:49:23.316Z,1.27
2018-09-13T12:51:52.377Z,1.27
2018-09-13T12:54:21.143Z,1.43
2018-09-13T12:56:50.133Z,1.37
2018-09-13T12:59:19.740Z,1.70
2018-09-13T13:01:48.464Z,1.20
2018-09-13T13:04:17.176Z,1.60
2018-09-13T13:06:45.976Z,1.27
2018-09-13T13:09:14.915Z,1.40
2018-09-13T13:11:43.712Z,2.03
2018-09-13T13:14:12.474Z,1.30
2018-09-13T13:16:41.290Z,2.00
2018-09-13T13:19:10.513Z,1.60
2018-09-13T13:21:39.424Z,1.73
2018-09-13T13:24:08.132Z,2.17
2018-09-13T13:26:36.831Z,2.00
2018-09-13T13:29:05.888Z,2.20
2018-09-13T13:31:34.591Z,2.10
2018-09-13T13:34:04.526Z,1.43
2018-09-13T13:36:33.305Z,1.77
2018-09-13T13:39:02.191Z,1.70
2018-09-13T13:41:30.912Z,1.50
2018-09-13T13:43:59.817Z,1.77
2018-09-13T13:46:28.802Z,1.70
2018-09-13T13:48:57.516Z,1.80
2018-09-13T13:51:26.270Z,1.77
2018-09-13T13:53:55.143Z,1.50
2018-09-13T13:56:23.854Z,1.70
2018-09-13T13:58:52.656Z,1.50
2018-09-13T14:01:21.501Z,1.50
2018-09-13T14:03:50.971Z,1.90
2018-09-13T14:06:20.267Z,1.33
2018-09-13T14:08:48.967Z,1.97
2018-09-13T14:11:17.691Z,1.70
2018-09-13T14:13:46.442Z,1.90
2018-09-13T14:16:15.472Z,2.07
2018-09-13T14:18:44.188Z,1.63
2018-09-13T14:21:13.014Z,1.57
2018-09-13T14:23:41.418Z,1.80
2018-09-13T14:26:10.444Z,1.50
2018-09-13T14:28:39.181Z,1.77
2018-09-13T14:31:08.891Z,2.47
2018-09-13T14:33:37.646Z,1.77
2018-09-13T14:36:06.746Z,1.77
2018-09-13T14:38:35.499Z,1.70
2018-09-13T14:41:04.248Z,2.17
2018-09-13T14:43:32.960Z,1.90
2018-09-13T14:46:03.501Z,1.40
2018-09-13T14:48:32.191Z,1.47
2018-09-13T14:51:00.920Z,1.83
2018-09-13T14:53:29.640Z,1.90
2018-09-13T14:55:59.267Z,1.80
2018-09-13T14:58:28.467Z,1.53
2018-09-13T15:01:01.583Z,1.40
2018-09-13T15:03:31.387Z,2.00
2018-09-13T15:06:00.243Z,2.10
2018-09-13T15:08:28.974Z,1.80
2018-09-13T15:10:57.675Z,1.53
2018-09-13T15:13:26.397Z,1.87
2018-09-13T15:15:56.316Z,1.93
2018-09-13T15:18:25.999Z,2.00
2018-09-13T15:20:54.850Z,1.50
2018-09-13T15:23:23.855Z,1.70
2018-09-13T15:25:52.701Z,1.67
2018-09-13T15:28:21.495Z,1.63
2018-09-13T15:30:50.423Z,1.60
2018-09-13T15:33:18.923Z,1.50
2018-09-13T15:35:47.743Z,1.57
2018-09-13T15:38:16.903Z,2.07
2018-09-13T15:40:46.259Z,1.70
2018-09-13T15:43:14.953Z,1.47
2018-09-13T15:45:43.666Z,2.50
2018-09-13T15:48:12.676Z,1.57
2018-09-13T15:50:41.881Z,1.80
2018-09-13T15:53:11.122Z,2.10
2018-09-13T15:55:40.235Z,2.37
2018-09-13T15:58:08.732Z,2.17
2018-09-13T16:00:38.209Z,1.70
2018-09-13T16:03:07.144Z,1.80
2018-09-13T16:05:35.869Z,1.77
2018-09-13T16:08:04.572Z,2.30
2018-09-13T16:10:33.695Z,2.03
2018-09-13T16:13:02.536Z,2.30
2018-09-13T16:15:31.333Z,1.53
2018-09-13T16:18:00.207Z,2.00
2018-09-13T16:20:29.100Z,2.00
2018-09-13T16:22:57.836Z,2.57
2018-09-13T16:25:26.608Z,1.87
2018-09-13T16:27:55.515Z,2.23
2018-09-13T16:30:24.300Z,2.00
2018-09-13T16:32:53.219Z,1.90
2018-09-13T16:35:22.184Z,1.90
2018-09-13T16:37:56.447Z,1.93
2018-09-13T16:40:30.870Z,2.27
2018-09-13T16:43:05.491Z,1.93
2018-09-13T16:45:34.340Z,1.50
2018-09-13T16:48:04.825Z,1.93
2018-09-13T16:50:33.541Z,1.60
2018-09-13T16:53:02.316Z,2.10
2018-09-13T16:55:31.192Z,2.00
2018-09-13T16:57:59.950Z,2.07
2018-09-13T17:00:28.795Z,1.80
2018-09-13T17:02:57.790Z,1.80
2018-09-13T17:05:26.518Z,1.80
2018-09-13T17:07:55.542Z,1.83
2018-09-13T17:10:23.955Z,1.50
2018-09-13T17:12:52.695Z,1.73
2018-09-13T17:15:21.572Z,1.97
2018-09-13T17:17:50.306Z,1.73
2018-09-13T17:20:19.783Z,1.70
2018-09-13T17:22:48.740Z,1.93
2018-09-13T17:25:17.453Z,2.13
2018-09-13T17:27:46.230Z,2.20
2018-09-13T17:30:14.984Z,2.80
2018-09-13T17:32:43.713Z,2.47
2018-09-13T17:35:12.419Z,2.00
2018-09-13T17:37:41.192Z,18.73
2018-09-13T17:40:09.706Z,17.87
2018-09-13T17:42:38.412Z,5.70
2018-09-13T17:45:07.277Z,2.50
2018-09-13T17:47:35.995Z,1.70
2018-09-13T17:50:05.735Z,1.80
2018-09-13T17:52:34.628Z,2.20
2018-09-13T17:55:04.547Z,2.17
2018-09-13T17:57:33.284Z,2.03
2018-09-13T18:00:02.013Z,2.37
2018-09-13T18:02:30.767Z,1.80
2018-09-13T18:04:59.628Z,1.70
2018-09-13T18:07:28.460Z,1.80
2018-09-13T18:09:58.810Z,1.77
2018-09-13T18:12:27.630Z,2.47
2018-09-13T18:14:56.338Z,3.10
2018-09-13T18:17:25.172Z,3.53
2018-09-13T18:19:54.287Z,2.43
2018-09-13T18:22:23.660Z,3.17
2018-09-13T18:24:52.684Z,3.43
2018-09-13T18:27:21.900Z,2.57
2018-09-13T18:29:50.998Z,2.20
2018-09-13T18:32:20.153Z,1.93
2018-09-13T18:34:49.163Z,2.00
2018-09-13T18:37:17.880Z,2.20
2018-09-13T18:39:48.381Z,1.50
2018-09-13T18:42:17.390Z,2.00
2018-09-13T18:44:46.602Z,2.40
2018-09-13T18:47:16.320Z,2.03
2018-09-13T18:49:45.564Z,2.83
2018-09-13T18:52:14.944Z,3.00
2018-09-13T18:54:43.691Z,19.60
2018-09-13T18:57:12.983Z,8.93
2018-09-13T18:59:41.879Z,9.17
2018-09-13T19:02:10.698Z,8.27
2018-09-13T19:04:39.707Z,7.43
2018-09-13T19:07:09.120Z,4.13
2018-09-13T19:09:37.907Z,6.23
2018-09-13T19:12:06.987Z,5.67
2018-09-13T19:14:36.066Z,6.33
2018-09-13T19:17:05.484Z,5.20
2018-09-13T19:19:34.712Z,5.37
2018-09-13T19:22:03.396Z,4.40
2018-09-13T19:24:32.594Z,4.83
2018-09-13T19:27:01.725Z,4.40
2018-09-13T19:29:30.200Z,4.10
2018-09-13T19:31:58.895Z,4.00
2018-09-13T19:34:28.090Z,4.00
2018-09-13T19:36:57.295Z,3.50
2018-09-13T19:39:26.399Z,3.27
2018-09-13T19:41:55.467Z,3.47
2018-09-13T19:44:24.328Z,3.33
2018-09-13T19:46:53.371Z,3.53
2018-09-13T19:49:22.446Z,3.27
2018-09-13T19:51:51.259Z,3.30
2018-09-13T19:54:20.033Z,3.13
2018-09-13T19:56:48.738Z,3.00
2018-09-13T19:59:17.438Z,2.73
2018-09-13T20:01:46.959Z,3.60
2018-09-13T20:04:16.048Z,3.53
2018-09-13T20:06:45.271Z,3.63
2018-09-13T20:09:13.963Z,3.27
2018-09-13T20:11:42.682Z,3.47
2018-09-13T20:14:11.508Z,3.67
2018-09-13T20:16:41.011Z,3.43
2018-09-13T20:19:09.813Z,3.67
2018-09-13T20:21:38.566Z,3.87
2018-09-13T20:24:07.435Z,3.43
2018-09-13T20:26:36.418Z,3.83
2018-09-13T20:29:06.151Z,3.80
2018-09-13T20:31:34.978Z,4.50
2018-09-13T20:34:04.651Z,4.33
2018-09-13T20:36:33.476Z,4.20
2018-09-13T20:39:02.830Z,4.63
2018-09-13T20:41:31.801Z,4.73
2018-09-13T20:44:00.793Z,7.13
2018-09-13T20:46:29.852Z,10.73
2018-09-13T20:48:59.951Z,12.70
2018-09-13T20:51:28.669Z,5.10
2018-09-13T20:53:57.731Z,5.77
2018-09-13T20:56:26.512Z,5.50
